createdAt,value
2023-04-30T00:01:42.935Z,6.87
2023-04-30T00:04:10.599Z,7.10
2023-04-30T00:06:39.690Z,6.40
2023-04-30T00:09:07.404Z,6.60
2023-04-30T00:11:35.029Z,6.53
2023-04-30T00:14:02.610Z,6.80
2023-04-30T00:16:30.296Z,6.50
2023-04-30T00:18:58.060Z,7.17
2023-04-30T00:21:26.196Z,6.40
2023-04-30T00:23:55.309Z,7.03
2023-04-30T00:26:22.922Z,7.03
2023-04-30T00:28:50.709Z,6.97
2023-04-30T00:31:18.492Z,6.73
2023-04-30T00:33:46.089Z,6.83
2023-04-30T00:36:13.912Z,6.90
2023-04-30T00:38:41.713Z,6.73
2023-04-30T00:41:11.143Z,6.30
2023-04-30T00:43:39.132Z,7.00
2023-04-30T00:46:06.895Z,7.40
2023-04-30T00:48:34.710Z,6.43
2023-04-30T00:51:03.968Z,7.27
2023-04-30T00:53:32.333Z,7.07
2023-04-30T00:56:00.358Z,7.10
2023-04-30T00:58:29.298Z,7.00
2023-04-30T01:00:57.379Z,6.90
2023-04-30T01:03:25.192Z,6.80
2023-04-30T01:05:53.785Z,6.67
2023-04-30T01:08:22.113Z,7.33
2023-04-30T01:10:54.817Z,6.27
2023-04-30T01:13:30.545Z,6.80
2023-04-30T01:16:08.155Z,7.60
2023-04-30T01:18:43.043Z,7.30
2023-04-30T01:21:11.020Z,7.40
2023-04-30T01:23:55.783Z,7.60
2023-04-30T01:26:40.203Z,7.67
2023-04-30T01:29:11.251Z,7.30
2023-04-30T01:31:38.975Z,8.07
2023-04-30T01:34:06.829Z,7.40
2023-04-30T01:36:46.799Z,7.77
2023-04-30T01:39:27.927Z,8.40
2023-04-30T01:42:03.874Z,8.50
2023-04-30T01:44:50.374Z,7.70
2023-04-30T01:47:29.000Z,7.97
2023-04-30T01:50:04.330Z,8.20
2023-04-30T01:52:40.644Z,7.80
2023-04-30T01:55:12.669Z,7.83
2023-04-30T01:57:44.513Z,8.20
2023-04-30T02:00:15.297Z,8.27
2023-04-30T02:02:43.086Z,9.17
2023-04-30T02:05:10.905Z,8.70
2023-04-30T02:07:43.893Z,10.43
2023-04-30T02:10:13.009Z,10.10
2023-04-30T02:12:41.177Z,8.67
2023-04-30T02:15:10.213Z,9.70
2023-04-30T02:17:39.242Z,9.60
2023-04-30T02:20:09.001Z,9.30
2023-04-30T02:22:37.036Z,9.20
2023-04-30T02:25:04.948Z,9.33
2023-04-30T02:27:34.115Z,9.03
2023-04-30T02:30:02.536Z,8.87
2023-04-30T02:32:30.486Z,9.33
2023-04-30T02:34:59.732Z,9.07
2023-04-30T02:37:27.463Z,9.53
2023-04-30T02:39:55.280Z,8.40
2023-04-30T02:42:23.087Z,9.00
2023-04-30T02:44:50.875Z,9.27
2023-04-30T02:47:18.574Z,9.60
2023-04-30T02:49:46.164Z,9.20
2023-04-30T02:52:15.196Z,9.57
2023-04-30T02:54:42.820Z,9.93
2023-04-30T02:57:10.559Z,9.60
2023-04-30T02:59:38.778Z,8.70
2023-04-30T03:02:06.402Z,9.53
2023-04-30T03:04:34.054Z,10.10
2023-04-30T03:07:01.869Z,10.00
2023-04-30T03:09:31.489Z,9.20
2023-04-30T03:11:59.125Z,8.53
2023-04-30T03:14:26.777Z,9.17
2023-04-30T03:16:54.717Z,9.43
2023-04-30T03:19:25.176Z,10.73
2023-04-30T03:21:53.078Z,9.60
2023-04-30T03:24:20.713Z,9.43
2023-04-30T03:26:50.040Z,10.40
2023-04-30T03:29:17.800Z,9.60
2023-04-30T03:31:45.504Z,9.37
2023-04-30T03:34:13.143Z,8.90
2023-04-30T03:36:40.746Z,8.93
2023-04-30T03:39:09.861Z,9.23
2023-04-30T03:41:37.732Z,9.70
2023-04-30T03:44:06.971Z,9.33
2023-04-30T03:46:34.626Z,10.40
2023-04-30T03:49:02.339Z,9.43
2023-04-30T03:51:30.072Z,9.90
2023-04-30T03:53:57.692Z,9.40
2023-04-30T03:56:26.097Z,10.43
2023-04-30T03:58:53.732Z,9.87
2023-04-30T04:01:22.744Z,9.73
2023-04-30T04:03:50.524Z,10.27
2023-04-30T04:06:18.289Z,11.20
2023-04-30T04:08:46.280Z,11.30
2023-04-30T04:11:13.922Z,10.57
2023-04-30T04:13:41.609Z,9.57
2023-04-30T04:16:09.650Z,8.63
2023-04-30T04:18:38.636Z,9.20
2023-04-30T04:21:06.722Z,8.37
2023-04-30T04:23:34.911Z,9.90
2023-04-30T04:26:03.154Z,9.77
2023-04-30T04:28:30.731Z,7.83
2023-04-30T04:30:58.500Z,8.53
2023-04-30T04:33:26.104Z,8.83
2023-04-30T04:35:55.206Z,8.83
2023-04-30T04:38:22.804Z,9.10
2023-04-30T04:40:54.112Z,8.60
2023-04-30T04:43:21.752Z,8.00
2023-04-30T04:45:49.660Z,7.60
2023-04-30T04:48:17.293Z,8.63
2023-04-30T04:50:44.965Z,8.70
2023-04-30T04:53:14.064Z,7.60
2023-04-30T04:55:41.673Z,8.27
2023-04-30T04:58:09.652Z,7.63
2023-04-30T05:00:37.492Z,9.03
2023-04-30T05:03:05.395Z,7.90
2023-04-30T05:05:33.143Z,9.07
2023-04-30T05:08:01.072Z,7.73
2023-04-30T05:10:30.156Z,6.60
2023-04-30T05:12:57.753Z,6.80
2023-04-30T05:15:25.967Z,7.63
2023-04-30T05:17:53.687Z,7.43
2023-04-30T05:20:21.323Z,6.10
2023-04-30T05:22:48.933Z,5.73
2023-04-30T05:25:16.658Z,5.50
2023-04-30T05:27:45.608Z,6.80
2023-04-30T05:30:15.628Z,5.10
2023-04-30T05:32:43.543Z,6.30
2023-04-30T05:35:11.258Z,5.60
2023-04-30T05:37:39.219Z,6.13
2023-04-30T05:40:08.247Z,5.30
2023-04-30T05:42:36.445Z,5.33
2023-04-30T05:45:06.352Z,4.57
2023-04-30T05:47:34.618Z,4.80
2023-04-30T05:50:02.384Z,4.93
2023-04-30T05:52:30.075Z,5.80
2023-04-30T05:54:58.576Z,4.30
2023-04-30T05:57:26.376Z,4.57
2023-04-30T05:59:55.032Z,4.80
2023-04-30T06:02:24.373Z,4.90
2023-04-30T06:04:52.327Z,4.87
2023-04-30T06:07:19.900Z,4.97
2023-04-30T06:09:47.532Z,4.47
2023-04-30T06:12:15.306Z,4.10
2023-04-30T06:14:45.391Z,4.10
2023-04-30T06:17:13.342Z,4.60
2023-04-30T06:19:42.356Z,4.70
2023-04-30T06:22:10.020Z,5.13
2023-04-30T06:24:37.625Z,4.00
2023-04-30T06:27:05.463Z,5.07
2023-04-30T06:29:33.023Z,4.77
2023-04-30T06:32:00.654Z,4.10
2023-04-30T06:34:28.365Z,5.00
2023-04-30T06:36:57.665Z,3.77
2023-04-30T06:39:25.436Z,4.20
2023-04-30T06:41:53.091Z,4.57
2023-04-30T06:44:21.275Z,4.17
2023-04-30T06:46:49.214Z,3.83
2023-04-30T06:49:17.307Z,3.90
2023-04-30T06:51:44.911Z,4.10
2023-04-30T06:54:14.411Z,4.00
2023-04-30T06:56:42.394Z,4.93
2023-04-30T06:59:10.174Z,4.00
2023-04-30T07:01:37.809Z,4.00
2023-04-30T07:04:05.749Z,3.50
2023-04-30T07:06:33.850Z,4.50
2023-04-30T07:09:01.499Z,4.33
2023-04-30T07:11:30.628Z,3.83
2023-04-30T07:13:58.168Z,4.00
2023-04-30T07:16:28.048Z,3.60
2023-04-30T07:18:56.129Z,4.90
2023-04-30T07:21:25.470Z,4.10
2023-04-30T07:23:53.102Z,4.17
2023-04-30T07:26:20.834Z,4.33
2023-04-30T07:28:49.974Z,4.70
2023-04-30T07:31:17.927Z,3.93
2023-04-30T07:33:45.785Z,3.97
2023-04-30T07:36:13.424Z,3.50
2023-04-30T07:38:41.054Z,4.30
2023-04-30T07:41:09.499Z,4.73
2023-04-30T07:43:37.375Z,4.17
2023-04-30T07:46:06.582Z,4.80
2023-04-30T07:48:34.171Z,4.10
2023-04-30T07:51:01.853Z,4.43
2023-04-30T07:53:29.647Z,4.60
2023-04-30T07:55:57.317Z,4.53
2023-04-30T07:58:24.981Z,4.33
2023-04-30T08:00:53.115Z,5.60
2023-04-30T08:03:22.598Z,4.10
2023-04-30T08:05:50.359Z,4.93
2023-04-30T08:08:17.964Z,4.63
2023-04-30T08:10:45.990Z,4.90
2023-04-30T08:13:13.665Z,4.33
2023-04-30T08:15:42.414Z,4.23
2023-04-30T08:18:10.944Z,5.03
2023-04-30T08:20:40.523Z,5.30
2023-04-30T08:23:08.144Z,5.40
2023-04-30T08:25:36.935Z,4.30
2023-04-30T08:28:04.681Z,4.70
2023-04-30T08:30:32.259Z,4.43
2023-04-30T08:33:00.013Z,4.00
2023-04-30T08:35:29.711Z,4.90
2023-04-30T08:37:58.767Z,3.70
2023-04-30T08:40:43.725Z,4.83
2023-04-30T08:43:12.957Z,4.30
2023-04-30T08:45:41.610Z,4.60
2023-04-30T08:48:14.226Z,5.03
2023-04-30T08:50:49.852Z,4.47
2023-04-30T08:53:20.999Z,5.50
2023-04-30T08:55:49.214Z,4.93
2023-04-30T08:58:17.050Z,4.27
2023-04-30T09:00:44.779Z,3.70
2023-04-30T09:03:12.570Z,3.77
2023-04-30T09:05:41.723Z,4.17
2023-04-30T09:08:10.971Z,4.47
2023-04-30T09:10:39.028Z,5.43
2023-04-30T09:13:08.936Z,5.00
2023-04-30T09:15:38.677Z,4.67
2023-04-30T09:18:11.118Z,4.43
2023-04-30T09:20:39.399Z,5.10
2023-04-30T09:23:08.962Z,5.03
2023-04-30T09:25:42.502Z,4.73
2023-04-30T09:28:11.281Z,4.43
2023-04-30T09:30:39.620Z,4.50
2023-04-30T09:33:09.890Z,5.50
2023-04-30T09:35:41.462Z,4.90
2023-04-30T09:38:25.887Z,4.73
2023-04-30T09:40:55.032Z,5.07
2023-04-30T09:43:22.710Z,4.60
2023-04-30T09:45:51.605Z,4.67
2023-04-30T09:48:22.065Z,4.87
2023-04-30T09:50:50.393Z,4.90
2023-04-30T09:53:18.694Z,5.10
2023-04-30T09:55:47.913Z,4.07
2023-04-30T09:58:18.924Z,5.77
2023-04-30T10:00:48.571Z,5.30
2023-04-30T10:03:17.112Z,5.87
2023-04-30T10:05:48.050Z,4.77
2023-04-30T10:08:20.507Z,5.37
2023-04-30T10:10:51.995Z,4.57
2023-04-30T10:13:22.816Z,4.80
2023-04-30T10:15:54.259Z,4.83
2023-04-30T10:18:27.789Z,4.80
2023-04-30T10:20:57.278Z,4.30
2023-04-30T10:23:25.516Z,5.30
2023-04-30T10:25:53.391Z,4.43
2023-04-30T10:28:22.335Z,4.30
2023-04-30T10:30:52.175Z,4.23
2023-04-30T10:33:26.393Z,4.90
2023-04-30T10:35:58.558Z,5.20
2023-04-30T10:38:29.675Z,4.87
2023-04-30T10:40:58.408Z,5.10
2023-04-30T10:43:27.971Z,4.50
2023-04-30T10:45:58.217Z,4.60
2023-04-30T10:48:27.307Z,4.77
2023-04-30T10:50:57.251Z,5.17
2023-04-30T10:53:26.363Z,4.83
2023-04-30T10:55:55.723Z,5.13
2023-04-30T10:58:31.305Z,4.60
2023-04-30T11:01:04.196Z,4.87
2023-04-30T11:03:32.955Z,4.73
2023-04-30T11:06:03.757Z,4.50
2023-04-30T11:08:35.858Z,5.13
2023-04-30T11:11:05.131Z,4.60
2023-04-30T11:13:46.400Z,4.80
2023-04-30T11:16:14.464Z,4.60
2023-04-30T11:18:45.732Z,4.73
2023-04-30T11:21:13.987Z,5.50
2023-04-30T11:23:43.208Z,5.10
2023-04-30T11:26:11.297Z,5.10
2023-04-30T11:28:39.666Z,4.80
2023-04-30T11:31:08.721Z,4.67
2023-04-30T11:33:36.537Z,5.10
2023-04-30T11:36:04.545Z,4.63
2023-04-30T11:38:36.195Z,4.83
2023-04-30T11:41:05.172Z,5.20
2023-04-30T11:43:33.884Z,5.23
2023-04-30T11:46:06.903Z,4.70
2023-04-30T11:48:37.798Z,4.47
2023-04-30T11:51:07.296Z,4.43
2023-04-30T11:53:34.916Z,4.57
2023-04-30T11:56:06.374Z,4.77
2023-04-30T11:58:38.077Z,4.93
2023-04-30T12:01:06.400Z,4.60
2023-04-30T12:03:34.094Z,4.47
2023-04-30T12:06:03.335Z,4.60
2023-04-30T12:08:31.105Z,4.50
2023-04-30T12:10:58.747Z,4.30
2023-04-30T12:13:26.331Z,4.50
2023-04-30T12:16:00.595Z,4.20
2023-04-30T12:18:28.266Z,4.07
2023-04-30T12:20:56.535Z,5.03
2023-04-30T12:23:25.887Z,4.40
2023-04-30T12:25:53.562Z,4.40
2023-04-30T12:28:21.180Z,4.40
2023-04-30T12:30:48.814Z,4.60
2023-04-30T12:33:18.916Z,4.67
2023-04-30T12:35:46.770Z,5.07
2023-04-30T12:38:17.926Z,4.03
2023-04-30T12:40:49.750Z,4.97
2023-04-30T12:43:18.577Z,4.77
2023-04-30T12:45:48.107Z,4.50
2023-04-30T12:48:17.139Z,4.90
2023-04-30T12:50:49.227Z,4.17
2023-04-30T12:53:16.882Z,4.43
2023-04-30T12:55:44.456Z,5.10
2023-04-30T12:58:16.566Z,4.67
2023-04-30T13:00:49.063Z,4.80
2023-04-30T13:03:18.580Z,5.17
2023-04-30T13:05:50.752Z,4.90
2023-04-30T13:08:19.139Z,4.60
2023-04-30T13:10:47.828Z,4.47
2023-04-30T13:13:18.594Z,5.03
2023-04-30T13:15:46.565Z,5.87
2023-04-30T13:18:15.792Z,4.60
2023-04-30T13:20:44.676Z,4.90
2023-04-30T13:23:12.871Z,4.80
2023-04-30T13:25:41.735Z,4.30
2023-04-30T13:28:09.407Z,4.47
2023-04-30T13:30:38.484Z,4.40
2023-04-30T13:33:06.147Z,5.43
2023-04-30T13:35:33.782Z,5.37
2023-04-30T13:38:01.377Z,5.30
2023-04-30T13:40:28.974Z,5.20
2023-04-30T13:42:56.526Z,4.93
2023-04-30T13:45:24.134Z,4.70
2023-04-30T13:47:53.300Z,4.50
2023-04-30T13:50:21.065Z,4.87
2023-04-30T13:52:48.630Z,4.80
2023-04-30T13:55:16.369Z,4.90
2023-04-30T13:57:44.000Z,5.10
2023-04-30T14:00:12.697Z,4.50
2023-04-30T14:02:40.524Z,4.67
2023-04-30T14:05:10.740Z,4.43
2023-04-30T14:07:38.424Z,4.67
2023-04-30T14:10:07.180Z,4.97
2023-04-30T14:12:34.774Z,4.23
2023-04-30T14:15:03.346Z,4.73
2023-04-30T14:17:31.547Z,4.87
2023-04-30T14:19:59.180Z,4.73
2023-04-30T14:22:28.301Z,4.80
2023-04-30T14:24:55.944Z,4.80
2023-04-30T14:27:23.528Z,4.77
2023-04-30T14:29:51.453Z,4.10
2023-04-30T14:32:19.259Z,5.03
2023-04-30T14:34:47.224Z,4.17
2023-04-30T14:37:15.564Z,4.47
2023-04-30T14:39:44.783Z,4.17
2023-04-30T14:42:12.476Z,4.57
2023-04-30T14:44:41.285Z,4.60
2023-04-30T14:47:08.980Z,4.57
2023-04-30T14:49:36.625Z,4.60
2023-04-30T14:52:04.259Z,4.87
2023-04-30T14:54:31.833Z,4.63
2023-04-30T14:57:00.848Z,4.20
2023-04-30T14:59:28.467Z,4.37
2023-04-30T15:01:56.097Z,4.27
2023-04-30T15:04:23.741Z,3.83
2023-04-30T15:06:51.405Z,5.00
2023-04-30T15:09:19.176Z,4.43
2023-04-30T15:11:46.768Z,4.27
2023-04-30T15:14:16.974Z,4.90
2023-04-30T15:16:45.199Z,5.13
2023-04-30T15:19:12.868Z,4.60
2023-04-30T15:21:40.641Z,4.70
2023-04-30T15:24:08.950Z,4.43
2023-04-30T15:26:36.610Z,4.33
2023-04-30T15:29:04.358Z,4.20
2023-04-30T15:31:33.302Z,4.00
2023-04-30T15:34:02.396Z,4.53
2023-04-30T15:36:31.856Z,4.80
2023-04-30T15:38:59.555Z,5.17
2023-04-30T15:41:27.185Z,4.70
2023-04-30T15:43:54.806Z,4.70
2023-04-30T15:46:22.748Z,4.70
2023-04-30T15:48:51.825Z,4.17
2023-04-30T15:51:19.418Z,4.30
2023-04-30T15:53:46.997Z,3.80
2023-04-30T15:56:14.724Z,4.10
2023-04-30T15:58:42.264Z,4.53
2023-04-30T16:01:09.956Z,4.50
2023-04-30T16:03:38.064Z,4.30
2023-04-30T16:06:07.606Z,4.67
2023-04-30T16:08:35.302Z,4.60
2023-04-30T16:11:03.757Z,4.93
2023-04-30T16:13:31.421Z,4.20
2023-04-30T16:15:59.076Z,4.70
2023-04-30T16:18:26.742Z,4.80
2023-04-30T16:20:54.347Z,4.20
2023-04-30T16:23:23.508Z,4.03
2023-04-30T16:25:51.617Z,4.50
2023-04-30T16:28:19.192Z,3.87
2023-04-30T16:30:46.853Z,4.27
2023-04-30T16:33:14.476Z,4.23
2023-04-30T16:35:42.247Z,4.47
2023-04-30T16:38:09.835Z,4.40
2023-04-30T16:40:38.917Z,4.10
2023-04-30T16:43:07.901Z,4.00
2023-04-30T16:45:35.667Z,4.20
2023-04-30T16:48:03.327Z,4.20
2023-04-30T16:50:31.768Z,3.97
2023-04-30T16:52:59.695Z,4.60
2023-04-30T16:55:27.518Z,4.50
2023-04-30T16:57:56.438Z,4.13
2023-04-30T17:00:24.076Z,4.40
2023-04-30T17:02:53.122Z,4.37
2023-04-30T17:05:21.486Z,4.20
2023-04-30T17:07:49.241Z,3.90
2023-04-30T17:10:18.325Z,3.70
2023-04-30T17:12:46.918Z,3.80
2023-04-30T17:15:15.949Z,4.67
2023-04-30T17:17:43.602Z,4.53
2023-04-30T17:20:12.380Z,4.50
2023-04-30T17:22:40.460Z,4.30
2023-04-30T17:25:09.099Z,4.90
2023-04-30T17:27:37.446Z,3.87
2023-04-30T17:30:06.013Z,4.70
2023-04-30T17:32:34.994Z,4.63
2023-04-30T17:35:03.157Z,4.37
2023-04-30T17:37:30.755Z,4.27
2023-04-30T17:39:58.611Z,4.07
2023-04-30T17:42:26.674Z,4.40
2023-04-30T17:44:54.269Z,4.30
2023-04-30T17:47:22.975Z,5.20
2023-04-30T17:49:52.077Z,4.67
2023-04-30T17:52:19.697Z,4.80
2023-04-30T17:54:47.292Z,4.20
2023-04-30T17:57:14.883Z,4.97
2023-04-30T17:59:42.554Z,4.60
2023-04-30T18:02:10.211Z,4.40
2023-04-30T18:04:37.857Z,5.10
2023-04-30T18:07:08.129Z,3.97
2023-04-30T18:09:36.135Z,4.10
2023-04-30T18:12:03.748Z,4.30
2023-04-30T18:14:32.055Z,4.13
2023-04-30T18:16:59.694Z,5.67
2023-04-30T18:19:27.588Z,4.53
2023-04-30T18:21:56.714Z,4.43
2023-04-30T18:24:27.763Z,4.13
2023-04-30T18:26:55.821Z,5.13
2023-04-30T18:29:24.608Z,4.10
2023-04-30T18:31:52.303Z,4.10
2023-04-30T18:34:19.969Z,4.37
2023-04-30T18:36:47.591Z,4.13
2023-04-30T18:39:15.252Z,3.90
2023-04-30T18:41:44.655Z,3.90
2023-04-30T18:44:13.470Z,3.90
2023-04-30T18:46:42.608Z,4.30
2023-04-30T18:49:10.179Z,3.50
2023-04-30T18:51:37.789Z,4.57
2023-04-30T18:54:05.577Z,4.80
2023-04-30T18:56:33.163Z,4.33
2023-04-30T18:59:02.548Z,4.50
2023-04-30T19:01:31.019Z,4.67
2023-04-30T19:03:58.707Z,5.00
2023-04-30T19:06:26.965Z,5.07
2023-04-30T19:08:54.961Z,4.40
2023-04-30T19:11:22.661Z,4.70
2023-04-30T19:13:50.223Z,4.73
2023-04-30T19:16:19.160Z,4.37
2023-04-30T19:18:46.809Z,4.77
2023-04-30T19:21:14.842Z,4.43
2023-04-30T19:23:42.528Z,4.27
2023-04-30T19:26:10.189Z,4.87
2023-04-30T19:28:37.775Z,4.57
2023-04-30T19:31:06.018Z,4.77
2023-04-30T19:33:39.100Z,5.30
2023-04-30T19:36:07.261Z,4.50
2023-04-30T19:38:34.892Z,4.83
2023-04-30T19:41:02.503Z,5.00
2023-04-30T19:43:30.129Z,4.30
2023-04-30T19:45:59.714Z,4.47
2023-04-30T19:48:27.358Z,4.80
2023-04-30T19:50:58.031Z,5.07
2023-04-30T19:53:26.100Z,5.90
2023-04-30T19:55:53.810Z,5.27
2023-04-30T19:58:21.862Z,5.10
2023-04-30T20:00:49.642Z,4.47
2023-04-30T20:03:20.496Z,4.83
2023-04-30T20:05:48.207Z,5.20
2023-04-30T20:08:17.431Z,6.10
2023-04-30T20:10:46.897Z,6.53
2023-04-30T20:13:15.812Z,7.83
2023-04-30T20:15:43.499Z,6.90
2023-04-30T20:18:12.426Z,5.80
2023-04-30T20:20:40.051Z,7.50
2023-04-30T20:23:14.977Z,8.20
2023-04-30T20:25:45.984Z,7.90
2023-04-30T20:28:14.485Z,6.07
2023-04-30T20:30:43.125Z,9.90
2023-04-30T20:33:11.002Z,13.60
2023-04-30T20:35:40.475Z,9.80
2023-04-30T20:38:08.284Z,9.00
2023-04-30T20:40:39.911Z,6.23
2023-04-30T20:43:10.159Z,6.10
2023-04-30T20:45:38.250Z,5.80
2023-04-30T20:48:06.679Z,6.87
2023-04-30T20:50:34.395Z,6.70
2023-04-30T20:53:02.082Z,7.20
2023-04-30T20:55:29.944Z,6.57
2023-04-30T20:57:57.612Z,6.47
2023-04-30T21:00:27.814Z,6.40
2023-04-30T21:02:55.672Z,7.27
2023-04-30T21:05:23.494Z,6.87
2023-04-30T21:07:51.338Z,6.10
2023-04-30T21:10:19.074Z,5.90
2023-04-30T21:12:47.048Z,6.37
2023-04-30T21:15:14.731Z,7.30
2023-04-30T21:17:43.753Z,5.60
2023-04-30T21:20:12.922Z,6.60
2023-04-30T21:22:41.041Z,7.33
2023-04-30T21:25:10.897Z,6.90
2023-04-30T21:27:38.778Z,8.73
2023-04-30T21:30:07.924Z,12.27
2023-04-30T21:32:35.692Z,15.27
2023-04-30T21:35:05.193Z,9.80
2023-04-30T21:37:33.004Z,8.27
2023-04-30T21:40:00.808Z,8.60
2023-04-30T21:42:29.000Z,11.97
2023-04-30T21:44:56.772Z,11.07
2023-04-30T21:47:25.257Z,9.23
2023-04-30T21:49:53.020Z,10.53
2023-04-30T21:52:22.214Z,8.87
2023-04-30T21:54:50.358Z,9.00
2023-04-30T21:57:17.934Z,8.40
2023-04-30T21:59:46.257Z,8.57
2023-04-30T22:04:48.078Z,8.40
2023-04-30T22:07:15.820Z,9.33
2023-04-30T22:09:45.385Z,8.40
2023-04-30T22:12:13.130Z,9.23
2023-04-30T22:14:40.780Z,10.10
2023-04-30T22:17:08.425Z,11.47
2023-04-30T22:19:36.154Z,10.97
2023-04-30T22:22:03.916Z,10.87
2023-04-30T22:24:31.811Z,13.10
2023-04-30T22:27:01.646Z,15.00
2023-04-30T22:29:29.229Z,14.17
2023-04-30T22:31:57.517Z,12.40
2023-04-30T22:34:25.469Z,10.20
2023-04-30T22:36:53.428Z,10.60
2023-04-30T22:39:21.103Z,10.70
2023-04-30T22:41:50.562Z,11.20
2023-04-30T22:44:20.357Z,10.83
2023-04-30T22:46:48.183Z,10.37
2023-04-30T22:49:27.531Z,9.80
2023-04-30T22:51:58.197Z,11.33
2023-04-30T22:54:25.883Z,10.93
2023-04-30T22:56:53.698Z,10.67
2023-04-30T22:59:22.705Z,11.10
2023-04-30T23:01:50.357Z,12.67
2023-04-30T23:04:18.070Z,11.30
2023-04-30T23:06:46.450Z,11.77
2023-04-30T23:09:15.886Z,14.07
2023-04-30T23:11:44.735Z,14.83
2023-04-30T23:14:12.438Z,16.23
2023-04-30T23:16:42.669Z,14.70
2023-04-30T23:19:10.845Z,16.03
2023-04-30T23:21:38.610Z,14.80
2023-04-30T23:24:06.406Z,13.37
2023-04-30T23:26:34.103Z,12.73
2023-04-30T23:29:02.752Z,13.97
2023-04-30T23:31:30.456Z,12.40
2023-04-30T23:33:59.514Z,12.27
2023-04-30T23:36:27.150Z,12.47
2023-04-30T23:38:54.864Z,10.83
2023-04-30T23:41:22.513Z,11.43
2023-04-30T23:43:51.031Z,12.33
2023-04-30T23:46:19.141Z,13.20
2023-04-30T23:48:46.818Z,12.40
2023-04-30T23:51:15.791Z,12.60
2023-04-30T23:53:43.414Z,12.40
2023-04-30T23:56:11.043Z,13.93
2023-04-30T23:58:38.703Z,14.30
